Time;durP1;ratioP1;P1;durP2;ratioP2;P2;SDS_P1;SDS_P2;PMS_P1;PMS_P2;Temp;Humidity;BMP_temperature;BMP_pressure;BME280_temperature;BME280_humidity;BME280_pressure;Samples;Min_cycle;Max_cycle;Signal;HPM_P1;HPM_P2
2023/07/04 00:01:47;;;;;;;;;;;;;;;13.65;64.70;98958.44;1731733;81;21450;-65
2023/07/04 00:04:16;;;;;;;4.87;1.57;;;;;;;13.61;64.88;98962.24;1729395;81;20603;-65
2023/07/04 00:06:42;;;;;;;6.25;1.57;;;;;;;13.58;64.79;98961.16;1722136;81;21053;-68
2023/07/04 00:09:09;;;;;;;8.10;1.92;;;;;;;13.56;64.77;98963.04;1729832;81;20986;-67
2023/07/04 00:11:36;;;;;;;3.00;1.40;;;;;;;13.55;64.81;98958.72;1728666;81;21014;-65
2023/07/04 00:14:03;;;;;;;6.30;1.35;;;;;;;13.55;64.83;98958.72;1726354;81;20895;-66
2023/07/04 00:16:30;;;;;;;5.73;1.40;;;;;;;13.55;64.93;98956.10;1724527;81;21613;-65
2023/07/04 00:18:56;;;;;;;4.47;1.50;;;;;;;13.53;64.92;98957.19;1727371;81;21078;-66
2023/07/04 00:21:24;;;;;;;3.85;1.47;;;;;;;13.51;64.94;98957.28;1728473;81;20951;-66
2023/07/04 00:23:52;;;;;;;4.97;1.45;;;;;;;13.45;64.96;98962.97;1726633;81;21069;-65
2023/07/04 00:26:22;;;;;;;6.53;1.82;;;;;;;13.39;64.91;98959.48;1726126;81;20954;-69
2023/07/04 00:28:49;;;;;;;4.60;1.57;;;;;;;13.29;65.25;98965.00;1723982;81;21088;-65
2023/07/04 00:31:18;;;;;;;4.05;1.47;;;;;;;13.23;65.19;98968.02;1728056;81;21336;-66
2023/07/04 00:33:45;;;;;;;3.85;1.40;;;;;;;13.13;65.22;98967.33;1726921;81;22152;-66
2023/07/04 00:36:15;;;;;;;3.12;1.30;;;;;;;13.09;65.45;98972.92;1724805;81;20966;-67
2023/07/04 00:38:42;;;;;;;4.67;1.77;;;;;;;13.07;65.70;98968.24;1726667;81;20995;-64
2023/07/04 00:41:20;;;;;;;4.35;1.77;;;;;;;13.08;65.63;98970.77;1725885;81;20986;-67
2023/07/04 00:46:39;;;;;;;4.08;1.70;;;;;;;13.05;65.98;98957.89;1687116;81;21048;-67
2023/07/04 00:49:14;;;;;;;4.83;1.82;;;;;;;13.22;65.97;98982.92;1728230;81;21430;-66
2023/07/04 00:51:37;;;;;;;4.35;1.55;;;;;;;13.25;66.16;98978.77;1724261;81;20931;-67
2023/07/04 00:54:04;;;;;;;3.27;1.42;;;;;;;13.31;66.16;98984.09;1727053;81;20969;-65
2023/07/04 00:56:30;;;;;;;4.92;1.90;;;;;;;13.34;66.18;98989.11;1728613;81;20998;-68
2023/07/04 00:58:59;;;;;;;5.70;1.52;;;;;;;13.39;66.28;98985.70;1722776;81;21019;-65
2023/07/04 01:01:27;;;;;;;5.17;1.55;;;;;;;13.43;66.33;98980.59;1726559;81;20958;-71
2023/07/04 01:03:58;;;;;;;6.67;1.45;;;;;;;13.45;66.33;98981.33;1728719;80;21032;-67
2023/07/04 01:06:43;;;;;;;7.25;2.10;;;;;;;13.48;66.36;98981.11;1723209;81;20967;-68
2023/07/04 01:09:12;;;;;;;8.75;2.00;;;;;;;13.53;66.39;98976.86;1726715;81;21021;-66
2023/07/04 01:11:44;;;;;;;2.87;1.60;;;;;;;13.52;66.43;98970.75;1727897;81;21014;-67
2023/07/04 01:14:19;;;;;;;4.05;1.75;;;;;;;13.54;66.53;98978.04;1723640;81;20962;-70
2023/07/04 01:16:46;;;;;;;13.50;3.40;;;;;;;13.55;66.59;98973.63;1691913;83;21565;-70
2023/07/04 01:19:16;;;;;;;5.67;1.60;;;;;;;13.59;66.61;98970.69;1736180;80;21490;-70
2023/07/04 01:21:46;;;;;;;5.58;2.45;;;;;;;13.60;66.67;98974.97;1731637;81;21003;-70
2023/07/04 01:24:16;;;;;;;6.22;1.67;;;;;;;13.60;66.67;98974.97;1732269;81;21069;-65
2023/07/04 01:26:46;;;;;;;8.10;2.05;;;;;;;13.60;66.56;98969.73;1729826;81;21048;-65
2023/07/04 01:29:15;;;;;;;6.03;1.95;;;;;;;13.61;66.67;98973.19;1707111;82;22084;-70
2023/07/04 01:31:43;;;;;;;4.45;2.22;;;;;;;13.61;66.71;98971.42;1738298;80;21484;-70
2023/07/04 01:34:12;;;;;;;10.20;2.20;;;;;;;13.64;66.66;98971.68;1737495;80;21089;-65
2023/07/04 01:36:41;;;;;;;4.78;1.70;;;;;;;13.65;66.76;98972.86;1736077;80;20969;-67
2023/07/04 01:39:15;;;;;;;6.12;2.45;;;;;;;13.70;66.80;98969.09;1739074;80;21501;-65
2023/07/04 01:41:45;;;;;;;5.85;1.90;;;;;;;13.72;66.73;98963.23;1714167;80;21010;-68
2023/07/04 01:44:12;;;;;;;3.22;1.77;;;;;;;13.72;66.75;98972.42;1737515;80;20992;-70
2023/07/04 01:46:38;;;;;;;;;;;;;;;13.71;66.71;98961.09;1737976;80;21037;-70
2023/07/04 01:49:05;;;;;;;8.83;2.70;;;;;;;13.72;66.86;98960.13;1738231;80;20159;-65
2023/07/04 01:51:35;;;;;;;5.47;1.60;;;;;;;13.72;66.85;98960.13;1738516;80;21084;-72
2023/07/04 01:54:04;;;;;;;6.37;2.00;;;;;;;13.72;66.88;98955.36;1734565;80;21323;-67
2023/07/04 01:56:32;;;;;;;6.75;1.90;;;;;;;13.73;66.79;98953.12;1735695;80;21765;-67
2023/07/04 01:58:58;;;;;;;4.58;2.25;;;;;;;13.73;66.76;98949.19;1736998;80;21044;-71
2023/07/04 02:01:25;;;;;;;5.80;2.20;;;;;;;13.73;66.80;98948.70;1737075;80;21026;-66
2023/07/04 02:03:52;;;;;;;4.28;1.85;;;;;;;13.74;66.73;98953.48;1735402;80;21477;-65
2023/07/04 02:06:19;;;;;;;3.83;1.90;;;;;;;13.75;66.83;98951.20;1733316;80;21654;-71
2023/07/04 02:08:46;;;;;;;8.93;2.12;;;;;;;13.73;66.77;98956.58;1737820;80;21493;-65
2023/07/04 02:11:12;;;;;;;6.50;2.03;;;;;;;13.74;66.73;98954.78;1737641;80;21512;-65
2023/07/04 02:13:39;;;;;;;6.83;2.65;;;;;;;13.73;66.73;98949.19;1732001;80;21029;-72
2023/07/04 02:16:06;;;;;;;5.55;2.45;;;;;;;13.72;66.80;98951.43;1734715;80;20997;-66
2023/07/04 02:18:32;;;;;;;8.80;2.27;;;;;;;13.74;66.78;98950.38;1714420;80;20999;-65
2023/07/04 02:20:58;;;;;;;8.08;2.02;;;;;;;13.76;66.82;98946.34;1688168;83;21068;-65
2023/07/04 02:23:24;;;;;;;9.03;1.92;;;;;;;13.77;66.81;98946.21;1688934;83;21055;-66
2023/07/04 02:25:54;;;;;;;7.47;2.20;;;;;;;13.78;66.81;98945.73;1686070;84;21067;-65
2023/07/04 02:28:20;;;;;;;11.75;2.15;;;;;;;13.78;66.72;98945.73;1684377;84;21040;-65
2023/07/04 02:30:55;;;;;;;7.45;2.27;;;;;;;13.78;66.72;98950.98;1687131;84;21531;-68
2023/07/04 02:33:22;;;;;;;7.20;2.10;;;;;;;13.78;66.76;98939.17;1686527;83;21038;-65
2023/07/04 02:35:49;;;;;;;5.97;1.98;;;;;;;13.76;66.69;98942.41;1687083;83;21078;-65
2023/07/04 02:38:16;;;;;;;5.40;2.08;;;;;;;13.74;66.67;98939.05;1685821;83;21114;-71
2023/07/04 02:40:48;;;;;;;7.83;2.52;;;;;;;13.71;66.71;98944.52;1687461;83;21094;-65
2023/07/04 02:43:15;;;;;;;5.33;2.10;;;;;;;13.65;66.80;98942.70;1685841;84;21557;-65
2023/07/04 02:45:42;;;;;;;5.60;2.27;;;;;;;13.49;66.80;98917.20;1686104;84;21475;-70
2023/07/04 02:48:09;;;;;;;;;;;;;;;13.53;66.85;98933.10;1688762;83;21636;-65
2023/07/04 02:50:36;;;;;;;6.10;2.45;;;;;;;13.43;67.03;98939.94;1686077;84;20503;-64
2023/07/04 02:53:03;;;;;;;5.67;2.42;;;;;;;13.43;67.03;98939.94;1689041;83;21130;-68
2023/07/04 02:55:29;;;;;;;8.28;3.33;;;;;;;13.37;66.97;98935.98;1686977;83;21019;-65
2023/07/04 02:57:55;;;;;;;7.47;2.72;;;;;;;13.31;67.01;98934.27;1692593;83;21031;-67
2023/07/04 03:00:22;;;;;;;5.60;2.25;;;;;;;13.27;67.13;98934.94;1690777;83;20979;-64
2023/07/04 03:02:48;;;;;;;5.00;1.95;;;;;;;13.04;67.10;98905.09;1688567;83;21122;-65
2023/07/04 03:05:15;;;;;;;9.23;3.93;;;;;;;13.17;67.11;98938.67;1691344;83;21090;-67
2023/07/04 03:07:41;;;;;;;4.13;1.87;;;;;;;13.13;67.21;98943.74;1688077;83;21011;-66
2023/07/04 03:10:08;;;;;;;9.50;2.55;;;;;;;13.09;67.21;98940.98;1686347;84;21015;-70
2023/07/04 03:12:34;;;;;;;6.15;2.17;;;;;;;13.07;67.25;98942.03;1685701;83;21573;-68
2023/07/04 03:15:00;;;;;;;7.72;2.75;;;;;;;13.04;67.42;98941.78;1685283;83;21047;-68
2023/07/04 03:17:27;;;;;;;7.12;2.50;;;;;;;13.03;67.52;98933.56;1687580;83;21047;-67
2023/07/04 03:19:53;;;;;;;7.17;2.60;;;;;;;13.06;67.60;98935.97;1721413;81;21120;-66
2023/07/04 03:22:20;;;;;;;7.05;2.35;;;;;;;13.09;67.70;98933.13;1732488;81;21906;-67
2023/07/04 03:24:46;;;;;;;5.10;2.30;;;;;;;13.17;67.78;98932.59;1729863;80;21069;-65
2023/07/04 03:27:13;;;;;;;11.53;2.50;;;;;;;13.26;67.79;98928.52;1727425;81;21453;-72
2023/07/04 03:29:39;;;;;;;4.30;2.50;;;;;;;13.33;67.86;98915.31;1721770;81;21088;-67
2023/07/04 03:32:07;;;;;;;5.65;2.17;;;;;;;13.43;67.92;98920.28;1655559;84;22048;-71
2023/07/04 03:34:33;;;;;;;;;;;;;;;13.52;67.89;98912.22;1729562;81;20971;-70
2023/07/04 03:36:59;;;;;;;4.42;2.02;;;;;;;13.60;67.89;98912.50;1725636;81;20113;-66
2023/07/04 03:39:25;;;;;;;13.88;2.62;;;;;;;13.64;67.87;98908.25;1724988;81;20990;-72
2023/07/04 03:41:52;;;;;;;5.27;2.67;;;;;;;13.71;67.80;98902.55;1729396;81;21528;-68
2023/07/04 03:44:18;;;;;;;6.83;2.70;;;;;;;13.78;67.84;98891.95;1726717;81;21477;-65
2023/07/04 03:46:44;;;;;;;5.87;2.33;;;;;;;13.82;67.83;98881.13;1726658;81;21053;-69
2023/07/04 03:49:10;;;;;;;7.65;2.58;;;;;;;13.87;67.71;98886.04;1728110;81;20952;-67
2023/07/04 03:51:37;;;;;;;13.28;3.98;;;;;;;13.92;67.79;98899.66;1722482;81;20943;-69
2023/07/04 03:54:03;;;;;;;5.50;2.70;;;;;;;13.96;67.73;98897.16;1729015;81;21052;-65
2023/07/04 03:56:29;;;;;;;5.42;2.60;;;;;;;14.00;67.88;98902.56;1727190;81;20947;-65
2023/07/04 03:58:56;;;;;;;8.05;2.50;;;;;;;14.10;67.96;98898.28;1703209;82;20958;-69
2023/07/04 04:01:24;;;;;;;5.53;2.45;;;;;;;14.19;67.86;98895.44;1726510;81;20993;-69
2023/07/04 04:03:53;;;;;;;9.73;2.60;;;;;;;14.29;67.85;98894.28;1729477;81;21028;-66
2023/07/04 04:06:19;;;;;;;7.80;3.08;;;;;;;14.35;67.84;98892.50;1726300;81;21635;-70
2023/07/04 04:08:45;;;;;;;10.48;2.27;;;;;;;14.40;67.79;98883.80;1726225;81;21098;-69
2023/07/04 04:11:11;;;;;;;9.18;2.85;;;;;;;14.48;67.73;98878.80;1726830;81;20994;-65
2023/07/04 04:13:37;;;;;;;11.57;2.98;;;;;;;14.55;67.69;98881.33;1729411;81;21034;-71
2023/07/04 04:16:04;;;;;;;7.53;2.22;;;;;;;14.60;67.56;98885.41;1726133;81;21037;-72
2023/07/04 04:18:31;;;;;;;;;;;;;;;14.63;67.59;98881.22;1728147;81;21029;-65
2023/07/04 04:20:57;;;;;;;7.03;2.35;;;;;;;14.68;67.60;98877.77;1694861;81;20184;-69
2023/07/04 04:23:23;;;;;;;10.05;2.85;;;;;;;14.74;67.49;98879.91;1694817;83;21591;-70
2023/07/04 04:25:50;;;;;;;7.65;2.27;;;;;;;14.79;67.56;98872.52;1698278;83;21031;-70
2023/07/04 04:28:17;;;;;;;8.83;2.35;;;;;;;14.93;67.55;98877.52;1702834;82;21000;-72
2023/07/04 04:30:43;;;;;;;6.15;2.40;;;;;;;15.11;67.59;98878.33;1660350;84;20953;-73
2023/07/04 04:33:10;;;;;;;8.05;2.58;;;;;;;15.27;67.58;98880.10;1661338;84;20985;-73
2023/07/04 04:35:40;;;;;;;7.93;2.73;;;;;;;15.40;67.31;98873.36;1662382;84;21025;-72
2023/07/04 04:38:08;;;;;;;7.97;2.42;;;;;;;15.51;67.24;98873.81;1659006;84;21041;-74
2023/07/04 04:40:34;;;;;;;5.17;2.62;;;;;;;15.62;67.03;98873.77;1674377;84;21026;-70
2023/07/04 04:43:02;;;;;;;6.57;2.83;;;;;;;15.68;66.84;98869.34;1671155;84;20943;-71
2023/07/04 04:45:28;;;;;;;12.03;2.70;;;;;;;15.74;66.77;98866.24;1674249;85;21014;-66
2023/07/04 04:47:55;;;;;;;7.90;2.40;;;;;;;15.92;66.45;98868.31;1673213;85;21009;-73
2023/07/04 04:50:32;;;;;;;7.17;2.52;;;;;;;15.92;66.45;98868.31;1676073;84;21457;-71
2023/07/04 04:53:00;;;;;;;5.40;2.50;;;;;;;15.94;66.30;98867.70;1673256;84;21152;-67
2023/07/04 04:55:27;;;;;;;10.82;2.92;;;;;;;15.93;66.26;98867.34;1673877;84;20962;-73
2023/07/04 04:57:54;;;;;;;10.90;2.72;;;;;;;15.95;65.98;98861.47;1662415;84;21007;-70
2023/07/04 05:00:21;;;;;;;8.15;2.83;;;;;;;15.94;65.94;98861.12;1693267;82;21027;-68
2023/07/04 05:02:47;;;;;;;7.35;2.47;;;;;;;15.93;65.98;98860.75;1691763;83;21106;-73
2023/07/04 05:05:15;;;;;;;7.12;2.55;;;;;;;15.93;65.90;98863.39;1699046;83;21074;-71
2023/07/04 05:07:41;;;;;;;11.60;3.25;;;;;;;15.88;65.72;98859.35;1693067;83;21051;-66
2023/07/04 05:10:09;;;;;;;11.80;3.42;;;;;;;15.86;65.65;98853.38;1695201;82;21375;-67
2023/07/04 05:12:36;;;;;;;8.68;2.62;;;;;;;15.87;65.53;98851.08;1659705;84;20946;-69
2023/07/04 05:15:03;;;;;;;8.75;3.40;;;;;;;15.83;65.26;98843.09;1695631;83;20980;-71
2023/07/04 05:17:29;;;;;;;6.95;2.62;;;;;;;15.79;65.15;98839.03;1693325;83;21083;-67
2023/07/04 05:19:55;;;;;;;7.03;2.77;;;;;;;15.72;65.15;98836.57;1699673;81;20975;-71
2023/07/04 05:22:23;;;;;;;7.22;3.10;;;;;;;15.76;65.34;98831.39;1720175;81;20954;-69
2023/07/04 05:24:49;;;;;;;4.80;2.33;;;;;;;15.83;65.29;98839.64;1722259;81;20975;-66
2023/07/04 05:27:17;;;;;;;7.55;2.95;;;;;;;15.94;65.15;98836.12;1728537;81;20983;-66
2023/07/04 05:29:49;;;;;;;10.55;2.60;;;;;;;16.03;64.99;98836.66;1722929;81;21096;-67
2023/07/04 05:32:15;;;;;;;6.72;2.77;;;;;;;16.14;65.06;98836.59;1721931;81;21062;-71
2023/07/04 05:34:48;;;;;;;10.60;2.87;;;;;;;16.27;64.65;98831.09;1725185;81;20935;-69
2023/07/04 05:37:18;;;;;;;5.92;2.75;;;;;;;16.38;64.68;98839.41;1722348;81;21030;-69
2023/07/04 05:39:51;;;;;;;9.73;3.02;;;;;;;16.54;64.52;98841.09;1712162;81;20915;-66
2023/07/04 05:42:17;;;;;;;10.48;3.05;;;;;;;16.65;64.17;98842.31;1723649;81;20950;-70
2023/07/04 05:44:44;;;;;;;5.87;2.62;;;;;;;16.72;64.17;98832.92;1719536;81;21568;-66
2023/07/04 05:47:13;;;;;;;7.30;2.30;;;;;;;16.85;63.82;98831.88;1723255;81;21473;-65
2023/07/04 05:49:40;;;;;;;7.15;2.75;;;;;;;16.94;63.80;98832.38;1721985;81;20966;-73
2023/07/04 05:52:07;;;;;;;19.60;4.83;;;;;;;17.08;63.67;98833.80;1719217;81;21075;-68
2023/07/04 05:54:33;;;;;;;11.48;2.87;;;;;;;17.21;63.66;98844.45;1721901;81;20967;-69
2023/07/04 05:57:00;;;;;;;11.48;3.25;;;;;;;17.31;63.13;98835.72;1721415;81;20998;-66
2023/07/04 05:59:26;;;;;;;9.60;2.70;;;;;;;17.41;62.82;98833.94;1720769;81;21025;-66
2023/07/04 06:01:52;;;;;;;6.22;2.72;;;;;;;17.50;62.58;98842.33;1721178;81;21006;-66
2023/07/04 06:04:19;;;;;;;7.67;2.92;;;;;;;17.57;62.58;98834.23;1715478;81;21085;-68
2023/07/04 06:06:59;;;;;;;7.85;2.95;;;;;;;17.63;62.36;98828.39;1722930;81;20939;-67
2023/07/04 06:09:22;;;;;;;7.55;3.00;;;;;;;17.73;62.01;98828.86;1723507;81;21009;-68
2023/07/04 06:11:49;;;;;;;8.98;2.80;;;;;;;17.79;62.03;98830.51;1718751;81;20979;-65
2023/07/04 06:14:20;;;;;;;9.20;3.00;;;;;;;17.76;61.51;98827.30;1718795;81;21601;-65
2023/07/04 06:16:47;;;;;;;19.35;4.25;;;;;;;17.71;61.43;98819.78;1724555;81;20982;-64
2023/07/04 06:19:13;;;;;;;7.37;3.12;;;;;;;17.78;61.33;98820.04;1719329;81;21025;-66
2023/07/04 06:21:40;;;;;;;10.00;3.05;;;;;;;17.87;61.23;98816.61;1730721;81;21105;-69
2023/07/04 06:24:06;;;;;;;13.80;3.22;;;;;;;18.00;61.70;98822.41;1726103;81;21508;-70
2023/07/04 06:26:33;;;;;;;6.75;2.85;;;;;;;18.18;61.08;98823.84;1729638;81;21493;-66
2023/07/04 06:29:00;;;;;;;9.48;3.40;;;;;;;18.34;61.07;98811.34;1726410;81;20954;-68
2023/07/04 06:31:27;;;;;;;5.75;2.50;;;;;;;18.58;60.96;98812.66;1726392;81;21034;-68
2023/07/04 06:33:55;;;;;;;6.58;3.35;;;;;;;18.93;60.79;98802.22;1696790;82;21014;-69
2023/07/04 06:36:21;;;;;;;8.88;3.35;;;;;;;19.20;59.95;98803.16;1694087;83;21019;-66
2023/07/04 06:38:48;;;;;;;8.07;3.43;;;;;;;19.31;59.70;98797.64;1650537;85;21049;-65
2023/07/04 06:41:15;;;;;;;7.97;3.22;;;;;;;19.37;59.74;98798.86;1691476;83;21019;-67
2023/07/04 06:43:44;;;;;;;12.90;3.58;;;;;;;19.48;59.27;98787.22;1667718;85;21056;-70
2023/07/04 06:46:13;;;;;;;8.70;3.17;;;;;;;19.49;58.53;98786.22;1697563;83;21626;-73
2023/07/04 06:48:39;;;;;;;8.13;2.90;;;;;;;19.62;59.43;98791.97;1736618;81;20966;-69
2023/07/04 06:51:12;;;;;;;6.03;3.23;;;;;;;19.84;58.54;98783.56;1735961;82;21489;-66
2023/07/04 06:53:40;;;;;;;12.33;3.67;;;;;;;20.12;58.59;98791.38;1728454;81;21583;-66
2023/07/04 06:56:12;;;;;;;12.10;3.08;;;;;;;20.43;58.68;98804.14;1737189;81;20943;-68
2023/07/04 06:58:42;;;;;;;14.18;2.98;;;;;;;20.76;58.76;98808.64;1731207;82;20994;-65
2023/07/04 07:01:10;;;;;;;5.08;2.83;;;;;;;21.14;57.44;98799.78;1724917;81;22387;-65
2023/07/04 07:03:38;;;;;;;13.88;3.50;;;;;;;21.31;56.92;98801.16;1738043;81;21074;-69
2023/07/04 07:06:07;;;;;;;8.25;3.17;;;;;;;21.54;57.25;98807.53;1729534;81;21140;-67
2023/07/04 07:08:38;;;;;;;9.93;3.30;;;;;;;21.92;57.62;98803.87;1733756;82;20993;-67
2023/07/04 07:11:11;;;;;;;9.03;3.62;;;;;;;22.81;57.74;98808.66;1731878;82;21121;-68
2023/07/04 07:13:42;;;;;;;22.42;5.20;;;;;;;23.75;56.94;98801.48;1731159;81;21560;-67
2023/07/04 07:16:21;;;;;;;11.08;3.77;;;;;;;24.62;56.43;98800.97;1734002;81;21034;-67
2023/07/04 07:18:49;;;;;;;7.67;3.25;;;;;;;25.44;56.32;98807.90;1707268;82;21061;-70
2023/07/04 07:21:24;;;;;;;7.72;3.17;;;;;;;26.24;55.67;98805.91;1694782;82;21074;-69
2023/07/04 07:23:50;;;;;;;9.03;4.53;;;;;;;27.01;54.50;98803.05;1700268;84;21656;-65
2023/07/04 07:26:20;;;;;;;8.95;3.87;;;;;;;27.64;54.01;98804.65;1702591;83;21004;-65
2023/07/04 07:28:46;;;;;;;13.18;4.20;;;;;;;28.04;50.56;98804.70;1698830;83;21054;-68
2023/07/04 07:31:16;;;;;;;26.35;5.00;;;;;;;28.44;52.03;98810.04;1700063;83;21122;-65
2023/07/04 07:33:48;;;;;;;95.40;10.65;;;;;;;28.95;51.56;98814.62;1700576;82;21032;-65
2023/07/04 07:36:24;;;;;;;14.40;4.40;;;;;;;29.98;50.37;98817.13;1695276;83;21668;-63
2023/07/04 07:38:52;;;;;;;22.02;5.17;;;;;;;30.29;47.69;98816.24;1695805;83;21183;-62
2023/07/04 07:41:21;;;;;;;21.48;5.28;;;;;;;30.33;48.09;98809.38;1695741;83;21102;-68
2023/07/04 07:43:48;;;;;;;22.10;4.90;;;;;;;29.25;45.80;98803.34;1698299;82;20964;-65
2023/07/04 07:46:16;;;;;;;21.60;4.95;;;;;;;28.09;44.49;98812.94;1697370;82;21514;-63
2023/07/04 07:48:43;;;;;;;16.40;4.75;;;;;;;27.53;46.75;98814.15;1696924;84;21098;-67
2023/07/04 07:51:12;;;;;;;46.73;7.80;;;;;;;28.32;47.28;98820.57;1698265;84;21086;-63
2023/07/04 07:53:40;;;;;;;11.95;4.60;;;;;;;29.64;43.00;98813.88;1700072;84;21342;-70
2023/07/04 07:56:09;;;;;;;51.33;9.40;;;;;;;29.35;43.61;98814.44;1697475;83;21038;-69
2023/07/04 07:58:42;;;;;;;46.20;7.83;;;;;;;29.14;41.15;98815.60;1693738;82;21042;-65
2023/07/04 08:01:14;;;;;;;12.37;4.12;;;;;;;29.29;43.48;98807.23;1694160;82;21098;-68
2023/07/04 08:03:46;;;;;;;17.87;4.53;;;;;;;29.73;43.11;98816.30;1695539;83;21034;-68
2023/07/04 08:06:29;;;;;;;17.42;4.78;;;;;;;30.06;40.21;98818.19;1696103;82;21046;-66
2023/07/04 08:09:00;;;;;;;16.05;4.75;;;;;;;30.67;40.51;98813.89;1688582;84;21073;-65
2023/07/04 08:11:31;;;;;;;10.53;4.22;;;;;;;31.09;41.59;98828.00;1678184;83;21321;-64
2023/07/04 08:14:01;;;;;;;63.85;9.25;;;;;;;31.99;40.04;98821.78;1680247;82;21113;-65
2023/07/04 08:16:45;;;;;;;7.95;4.12;;;;;;;32.57;38.56;98823.64;1683581;83;21601;-65
2023/07/04 08:19:23;;;;;;;18.67;4.22;;;;;;;32.88;39.66;98818.88;1683472;83;21038;-65
2023/07/04 08:21:54;;;;;;;11.53;4.75;;;;;;;33.06;37.64;98816.04;1710486;81;21071;-65
2023/07/04 08:24:25;;;;;;;12.03;4.45;;;;;;;33.23;37.99;98825.56;1720225;81;21160;-67
2023/07/04 08:26:58;;;;;;;71.55;10.43;;;;;;;33.07;37.38;98820.91;1641038;83;21046;-65
2023/07/04 08:29:29;;;;;;;12.43;3.77;;;;;;;32.67;37.63;98833.87;1722813;81;21083;-65
2023/07/04 08:32:10;;;;;;;7.90;4.12;;;;;;;31.61;36.33;98829.70;1686065;81;21037;-66
2023/07/04 08:34:40;;;;;;;8.43;3.95;;;;;;;29.76;34.51;98848.14;1721190;81;21006;-67
2023/07/04 08:37:12;;;;;;;8.68;4.28;;;;;;;27.94;35.81;98855.27;1721519;81;21360;-65
2023/07/04 08:39:46;;;;;;;40.88;7.10;;;;;;;26.42;35.14;98858.43;1717165;81;21068;-66
2023/07/04 08:42:16;;;;;;;9.90;4.35;;;;;;;25.21;35.95;98858.83;1724792;81;20998;-66
2023/07/04 08:44:45;;;;;;;7.78;3.98;;;;;;;24.40;36.21;98864.05;1721714;81;21067;-64
2023/07/04 08:47:25;;;;;;;40.33;6.45;;;;;;;23.67;36.39;98865.48;1724718;81;21052;-66
2023/07/04 08:49:56;;;;;;;13.62;4.12;;;;;;;23.13;36.68;98874.25;1722973;81;21083;-67
2023/07/04 08:52:35;;;;;;;7.47;3.67;;;;;;;22.62;37.19;98891.55;1725973;81;21018;-65
2023/07/04 08:55:09;;;;;;;10.65;3.75;;;;;;;22.38;37.33;98894.59;1728619;81;21161;-65
2023/07/04 08:57:45;;;;;;;7.45;3.42;;;;;;;22.55;37.71;98898.88;1722598;81;21588;-66
2023/07/04 09:00:20;;;;;;;7.55;2.95;;;;;;;22.67;38.04;98899.85;1716814;81;21571;-64
2023/07/04 09:03:11;;;;;;;10.60;3.65;;;;;;;22.93;38.31;98899.60;1716499;81;21026;-65
2023/07/04 09:06:15;;;;;;;17.55;4.25;;;;;;;23.99;38.76;98891.58;1723055;81;21757;-65
2023/07/04 09:08:53;;;;;;;9.83;3.55;;;;;;;25.32;39.46;98902.91;1723054;81;21026;-68
2023/07/04 09:11:20;;;;;;;7.92;3.70;;;;;;;26.03;37.95;98921.81;1726526;81;21467;-67
2023/07/04 09:13:54;;;;;;;7.45;3.58;;;;;;;25.94;37.81;98913.09;1724999;81;20962;-68
2023/07/04 09:16:36;;;;;;;12.82;3.62;;;;;;;25.58;38.31;98906.42;1724084;81;21575;-65
2023/07/04 09:19:05;;;;;;;7.87;3.08;;;;;;;25.49;37.90;98917.73;1724337;81;21052;-66
2023/07/04 09:21:34;;;;;;;8.03;2.80;;;;;;;25.06;37.94;98922.91;1720944;81;20970;-67
2023/07/04 09:24:04;;;;;;;15.05;3.58;;;;;;;24.55;37.69;98910.78;1724779;81;21328;-69
2023/07/04 09:26:41;;;;;;;4.40;2.75;;;;;;;23.72;37.51;98927.08;1724777;81;21080;-66
2023/07/04 09:29:10;;;;;;;9.23;3.00;;;;;;;22.91;37.80;98931.73;1723237;81;21038;-62
2023/07/04 09:31:39;;;;;;;7.37;3.22;;;;;;;22.22;38.06;98943.29;1723151;81;21564;-64
2023/07/04 09:34:21;;;;;;;14.23;3.72;;;;;;;21.55;38.33;98944.64;1726222;81;21442;-62
2023/07/04 09:36:51;;;;;;;19.67;3.17;;;;;;;21.14;38.80;98960.38;1725388;81;21552;-63
2023/07/04 09:39:20;;;;;;;10.18;2.95;;;;;;;21.19;39.41;98960.73;1709354;81;21851;-64
2023/07/04 09:41:57;;;;;;;8.55;2.72;;;;;;;22.49;40.51;98967.39;1725805;81;21008;-62
2023/07/04 09:44:36;;;;;;;5.55;2.30;;;;;;;23.87;39.88;98961.31;1723924;81;21045;-61
2023/07/04 09:47:01;;;;;;;12.98;2.98;;;;;;;24.49;39.27;98964.37;1722966;81;21022;-61
2023/07/04 09:49:36;;;;;;;6.37;2.25;;;;;;;25.21;39.04;98976.38;1727269;81;21097;-65
2023/07/04 09:52:06;;;;;;;6.30;2.58;;;;;;;25.37;39.00;98975.33;1723193;81;21021;-61
2023/07/04 09:54:38;;;;;;;8.60;2.40;;;;;;;25.35;38.85;98985.40;1729171;81;21592;-62
2023/07/04 09:57:23;;;;;;;6.20;2.37;;;;;;;25.26;38.90;98986.48;1724030;81;20991;-62
2023/07/04 09:59:56;;;;;;;6.20;2.77;;;;;;;25.03;39.04;98995.38;1721819;81;21572;-63
2023/07/04 10:02:34;;;;;;;5.60;2.35;;;;;;;25.98;39.49;98990.58;1726073;81;21038;-61
2023/07/04 10:05:03;;;;;;;7.22;2.50;;;;;;;26.02;38.72;98995.89;1725737;81;21676;-61
2023/07/04 10:07:29;;;;;;;7.45;2.05;;;;;;;25.92;38.27;98995.36;1726600;81;21057;-62
2023/07/04 10:10:04;;;;;;;27.75;5.00;;;;;;;25.45;38.29;98996.61;1726317;81;21079;-61
2023/07/04 10:12:34;;;;;;;6.87;2.20;;;;;;;24.99;38.63;99000.78;1728724;81;21116;-61
2023/07/04 10:15:03;;;;;;;28.55;4.30;;;;;;;24.25;38.25;99005.38;1724363;81;20982;-60
2023/07/04 10:17:39;;;;;;;12.30;3.08;;;;;;;23.46;38.45;99020.11;1724776;81;21033;-63
2023/07/04 10:20:12;;;;;;;20.40;2.98;;;;;;;22.87;38.56;99014.75;1725689;81;21525;-61
2023/07/04 10:22:42;;;;;;;24.50;3.65;;;;;;;22.32;38.68;99017.56;1728929;81;21357;-61
2023/07/04 10:25:14;;;;;;;13.30;2.72;;;;;;;21.94;39.01;99009.69;1730575;80;21050;-61
2023/07/04 10:27:46;;;;;;;12.37;3.08;;;;;;;22.47;39.80;99008.45;1729888;81;21471;-62
2023/07/04 10:30:18;;;;;;;16.52;3.62;;;;;;;24.15;40.26;99004.80;1734216;80;21013;-61
2023/07/04 10:32:48;;;;;;;13.13;2.50;;;;;;;25.25;39.61;98999.02;1734558;80;21005;-62
2023/07/04 10:35:21;;;;;;;30.02;3.58;;;;;;;27.34;40.75;98997.20;1732256;80;21627;-63
2023/07/04 10:37:51;;;;;;;10.13;1.85;;;;;;;30.05;40.25;99000.94;1733749;80;21485;-64
2023/07/04 10:40:20;;;;;;;18.57;3.02;;;;;;;32.57;39.32;99006.58;1737324;80;20950;-62
2023/07/04 10:43:12;;;;;;;22.05;3.72;;;;;;;34.41;38.72;98995.02;1738816;80;21034;-63
2023/07/04 10:45:41;;;;;;;24.75;3.08;;;;;;;36.55;38.30;98996.67;1735278;80;21193;-64
2023/07/04 10:48:18;;;;;;;66.37;8.15;;;;;;;37.82;33.90;98992.50;1732399;80;21515;-67
2023/07/04 10:50:54;;;;;;;47.05;6.12;;;;;;;38.14;35.20;98992.30;1733713;80;21017;-65
2023/07/04 10:53:20;;;;;;;47.40;5.35;;;;;;;37.93;30.05;98991.44;1736391;80;21053;-65
2023/07/04 10:55:53;;;;;;;5.72;1.67;;;;;;;37.57;33.59;99002.77;1734185;80;21000;-66
2023/07/04 10:58:24;;;;;;;7.78;1.90;;;;;;;37.28;31.83;99003.69;1737657;80;22428;-66
2023/07/04 11:01:03;;;;;;;4.30;1.05;;;;;;;35.63;28.16;99012.31;1737287;80;20978;-70
2023/07/04 11:03:46;;;;;;;11.30;1.60;;;;;;;33.75;30.70;99018.16;1736298;80;21561;-68
2023/07/04 11:06:19;;;;;;;15.58;2.33;;;;;;;32.81;30.70;99023.66;1739803;80;21558;-70
2023/07/04 11:08:50;;;;;;;23.45;2.33;;;;;;;31.64;29.96;99032.96;1704822;82;21081;-68
2023/07/04 11:11:20;;;;;;;3.75;1.10;;;;;;;30.80;29.93;99032.55;1735459;80;20986;-64
2023/07/04 11:13:56;;;;;;;5.85;1.60;;;;;;;30.35;29.43;99038.05;1733601;80;21025;-65
2023/07/04 11:16:27;;;;;;;56.90;6.70;;;;;;;29.95;30.20;99042.28;1738412;80;21060;-64
2023/07/04 11:19:06;;;;;;;36.98;4.65;;;;;;;30.90;30.56;99032.88;1736569;80;21124;-67
2023/07/04 11:21:33;;;;;;;15.03;2.65;;;;;;;31.79;29.66;99028.52;1739584;80;21108;-65
2023/07/04 11:24:15;;;;;;;3.62;1.12;;;;;;;31.98;29.25;99037.44;1742556;82;21080;-63
2023/07/04 11:27:00;;;;;;;6.78;1.60;;;;;;;32.44;29.47;99033.27;1715287;82;21564;-66
2023/07/04 11:29:30;;;;;;;8.65;1.17;;;;;;;33.21;28.22;99024.59;1715374;82;21614;-65
2023/07/04 11:32:06;;;;;;;6.87;1.10;;;;;;;33.34;28.87;99038.95;1718739;82;21080;-66
2023/07/04 11:34:53;;;;;;;;;;;;;;;32.91;27.98;99048.20;1720349;82;21014;-67
2023/07/04 11:37:26;;;;;;;34.38;3.77;;;;;;;31.69;27.21;99047.95;1678670;84;20119;-66
2023/07/04 11:39:57;;;;;;;9.45;1.20;;;;;;;30.36;27.69;99043.75;1679137;84;21057;-69
2023/07/04 11:42:32;;;;;;;9.65;1.85;;;;;;;30.76;28.56;99047.48;1716859;82;21449;-64
2023/07/04 11:45:05;;;;;;;9.05;1.07;;;;;;;32.07;28.54;99042.84;1721207;82;21519;-67
2023/07/04 11:47:44;;;;;;;7.80;1.95;;;;;;;32.90;27.79;99046.57;1717641;82;21064;-69